sensor_id;sensor_type;location;lat;lon;timestamp;P1;durP1;ratioP1;P2;durP2;ratioP2
9082;SDS011;4577;48.704;9.000;2023-04-16T00:01:40;13.10;;;9.63;;
9082;SDS011;4577;48.704;9.000;2023-04-16T00:04:06;12.13;;;9.97;;
9082;SDS011;4577;48.704;9.000;2023-04-16T00:06:31;10.73;;;8.97;;
9082;SDS011;4577;48.704;9.000;2023-04-16T00:08:57;12.07;;;9.50;;
9082;SDS011;4577;48.704;9.000;2023-04-16T00:11:23;12.37;;;9.50;;
9082;SDS011;4577;48.704;9.000;2023-04-16T00:13:49;12.10;;;10.00;;
9082;SDS011;4577;48.704;9.000;2023-04-16T00:16:15;12.80;;;10.47;;
9082;SDS011;4577;48.704;9.000;2023-04-16T00:18:40;12.47;;;10.30;;
9082;SDS011;4577;48.704;9.000;2023-04-16T00:21:06;10.83;;;8.90;;
9082;SDS011;4577;48.704;9.000;2023-04-16T00:23:32;12.47;;;10.20;;
9082;SDS011;4577;48.704;9.000;2023-04-16T00:25:58;13.17;;;10.50;;
9082;SDS011;4577;48.704;9.000;2023-04-16T00:28:26;13.07;;;10.13;;
9082;SDS011;4577;48.704;9.000;2023-04-16T00:30:52;14.00;;;10.77;;
9082;SDS011;4577;48.704;9.000;2023-04-16T00:33:18;12.57;;;9.60;;
9082;SDS011;4577;48.704;9.000;2023-04-16T00:35:45;14.20;;;10.40;;
9082;SDS011;4577;48.704;9.000;2023-04-16T00:38:11;11.93;;;9.97;;
9082;SDS011;4577;48.704;9.000;2023-04-16T00:40:37;12.43;;;9.73;;
9082;SDS011;4577;48.704;9.000;2023-04-16T00:43:04;14.20;;;9.77;;
9082;SDS011;4577;48.704;9.000;2023-04-16T00:45:29;14.90;;;10.77;;
9082;SDS011;4577;48.704;9.000;2023-04-16T00:47:55;12.50;;;9.90;;
9082;SDS011;4577;48.704;9.000;2023-04-16T00:50:22;12.53;;;10.00;;
9082;SDS011;4577;48.704;9.000;2023-04-16T00:52:48;13.37;;;10.30;;
9082;SDS011;4577;48.704;9.000;2023-04-16T00:55:15;13.53;;;10.50;;
9082;SDS011;4577;48.704;9.000;2023-04-16T00:57:42;14.03;;;10.20;;
9082;SDS011;4577;48.704;9.000;2023-04-16T01:00:09;12.67;;;10.07;;
9082;SDS011;4577;48.704;9.000;2023-04-16T01:02:35;15.97;;;10.80;;
9082;SDS011;4577;48.704;9.000;2023-04-16T01:05:01;14.80;;;10.13;;
9082;SDS011;4577;48.704;9.000;2023-04-16T01:07:28;13.23;;;10.00;;
9082;SDS011;4577;48.704;9.000;2023-04-16T01:09:54;17.40;;;9.10;;
9082;SDS011;4577;48.704;9.000;2023-04-16T01:12:20;11.07;;;8.87;;
9082;SDS011;4577;48.704;9.000;2023-04-16T01:14:46;12.00;;;9.07;;
9082;SDS011;4577;48.704;9.000;2023-04-16T01:17:12;12.43;;;9.23;;
9082;SDS011;4577;48.704;9.000;2023-04-16T01:19:37;12.50;;;9.40;;
9082;SDS011;4577;48.704;9.000;2023-04-16T01:22:03;11.80;;;9.03;;
9082;SDS011;4577;48.704;9.000;2023-04-16T01:24:30;13.13;;;8.87;;
9082;SDS011;4577;48.704;9.000;2023-04-16T01:26:59;12.43;;;9.40;;
9082;SDS011;4577;48.704;9.000;2023-04-16T01:29:25;11.90;;;9.37;;
9082;SDS011;4577;48.704;9.000;2023-04-16T01:31:51;16.10;;;8.63;;
9082;SDS011;4577;48.704;9.000;2023-04-16T01:34:18;10.53;;;8.23;;
9082;SDS011;4577;48.704;9.000;2023-04-16T01:36:44;10.30;;;8.20;;
9082;SDS011;4577;48.704;9.000;2023-04-16T01:39:09;10.07;;;7.83;;
9082;SDS011;4577;48.704;9.000;2023-04-16T01:41:39;8.63;;;7.13;;
9082;SDS011;4577;48.704;9.000;2023-04-16T01:44:05;8.90;;;7.30;;
9082;SDS011;4577;48.704;9.000;2023-04-16T01:46:31;10.03;;;7.83;;
9082;SDS011;4577;48.704;9.000;2023-04-16T01:48:58;9.37;;;7.50;;
9082;SDS011;4577;48.704;9.000;2023-04-16T01:51:24;9.20;;;7.60;;
9082;SDS011;4577;48.704;9.000;2023-04-16T01:53:51;8.60;;;7.37;;
9082;SDS011;4577;48.704;9.000;2023-04-16T01:56:17;8.93;;;7.10;;
9082;SDS011;4577;48.704;9.000;2023-04-16T01:58:43;8.90;;;6.60;;
9082;SDS011;4577;48.704;9.000;2023-04-16T02:01:10;8.80;;;7.30;;
9082;SDS011;4577;48.704;9.000;2023-04-16T02:03:36;8.67;;;6.60;;
9082;SDS011;4577;48.704;9.000;2023-04-16T02:06:01;7.00;;;6.30;;
9082;SDS011;4577;48.704;9.000;2023-04-16T02:08:30;7.00;;;6.10;;
9082;SDS011;4577;48.704;9.000;2023-04-16T02:10:58;8.47;;;6.53;;
9082;SDS011;4577;48.704;9.000;2023-04-16T02:13:25;7.40;;;6.60;;
9082;SDS011;4577;48.704;9.000;2023-04-16T02:15:50;6.90;;;5.80;;
9082;SDS011;4577;48.704;9.000;2023-04-16T02:18:16;22.37;;;16.03;;
9082;SDS011;4577;48.704;9.000;2023-04-16T02:20:43;8.60;;;6.73;;
9082;SDS011;4577;48.704;9.000;2023-04-16T02:23:10;8.27;;;6.90;;
9082;SDS011;4577;48.704;9.000;2023-04-16T02:25:43;7.73;;;6.50;;
9082;SDS011;4577;48.704;9.000;2023-04-16T02:28:11;10.83;;;6.93;;
9082;SDS011;4577;48.704;9.000;2023-04-16T02:34:03;6.80;;;6.07;;
9082;SDS011;4577;48.704;9.000;2023-04-16T02:36:32;7.17;;;6.20;;
9082;SDS011;4577;48.704;9.000;2023-04-16T02:38:58;8.70;;;7.20;;
9082;SDS011;4577;48.704;9.000;2023-04-16T02:41:23;7.37;;;6.50;;
9082;SDS011;4577;48.704;9.000;2023-04-16T02:43:49;8.70;;;6.57;;
9082;SDS011;4577;48.704;9.000;2023-04-16T02:46:15;8.27;;;7.17;;
9082;SDS011;4577;48.704;9.000;2023-04-16T02:48:41;13.23;;;6.47;;
9082;SDS011;4577;48.704;9.000;2023-04-16T02:51:07;8.87;;;6.47;;
9082;SDS011;4577;48.704;9.000;2023-04-16T02:53:33;7.30;;;6.30;;
9082;SDS011;4577;48.704;9.000;2023-04-16T02:55:59;8.93;;;6.70;;
9082;SDS011;4577;48.704;9.000;2023-04-16T02:58:25;8.83;;;7.10;;
9082;SDS011;4577;48.704;9.000;2023-04-16T03:00:51;8.67;;;6.20;;
9082;SDS011;4577;48.704;9.000;2023-04-16T03:03:17;8.50;;;6.70;;
9082;SDS011;4577;48.704;9.000;2023-04-16T03:05:43;7.57;;;6.37;;
9082;SDS011;4577;48.704;9.000;2023-04-16T03:08:09;9.00;;;6.60;;
9082;SDS011;4577;48.704;9.000;2023-04-16T03:10:36;8.40;;;6.60;;
9082;SDS011;4577;48.704;9.000;2023-04-16T03:13:01;8.00;;;6.83;;
9082;SDS011;4577;48.704;9.000;2023-04-16T03:15:28;9.90;;;7.60;;
9082;SDS011;4577;48.704;9.000;2023-04-16T03:17:54;8.40;;;6.87;;
9082;SDS011;4577;48.704;9.000;2023-04-16T03:20:20;9.50;;;7.73;;
9082;SDS011;4577;48.704;9.000;2023-04-16T03:22:46;10.53;;;8.17;;
9082;SDS011;4577;48.704;9.000;2023-04-16T03:25:12;10.80;;;8.37;;
9082;SDS011;4577;48.704;9.000;2023-04-16T03:27:38;12.30;;;8.93;;
9082;SDS011;4577;48.704;9.000;2023-04-16T03:30:08;13.40;;;9.13;;
9082;SDS011;4577;48.704;9.000;2023-04-16T03:32:35;10.93;;;8.50;;
9082;SDS011;4577;48.704;9.000;2023-04-16T03:35:02;14.47;;;9.20;;
9082;SDS011;4577;48.704;9.000;2023-04-16T03:37:28;13.93;;;9.40;;
9082;SDS011;4577;48.704;9.000;2023-04-16T03:39:54;11.40;;;8.83;;
9082;SDS011;4577;48.704;9.000;2023-04-16T03:42:20;14.60;;;9.77;;
9082;SDS011;4577;48.704;9.000;2023-04-16T03:44:46;15.07;;;10.20;;
9082;SDS011;4577;48.704;9.000;2023-04-16T03:47:12;13.50;;;9.67;;
9082;SDS011;4577;48.704;9.000;2023-04-16T03:49:38;12.73;;;9.40;;
9082;SDS011;4577;48.704;9.000;2023-04-16T03:52:04;12.80;;;8.90;;
9082;SDS011;4577;48.704;9.000;2023-04-16T03:54:30;12.07;;;8.63;;
9082;SDS011;4577;48.704;9.000;2023-04-16T03:56:56;13.87;;;8.60;;
9082;SDS011;4577;48.704;9.000;2023-04-16T03:59:22;12.00;;;8.17;;
9082;SDS011;4577;48.704;9.000;2023-04-16T04:01:48;12.67;;;8.20;;
9082;SDS011;4577;48.704;9.000;2023-04-16T04:04:14;11.50;;;8.10;;
9082;SDS011;4577;48.704;9.000;2023-04-16T04:06:40;11.07;;;7.90;;
9082;SDS011;4577;48.704;9.000;2023-04-16T04:09:06;10.50;;;8.20;;
9082;SDS011;4577;48.704;9.000;2023-04-16T04:11:32;11.70;;;8.30;;
9082;SDS011;4577;48.704;9.000;2023-04-16T04:13:58;10.80;;;7.97;;
9082;SDS011;4577;48.704;9.000;2023-04-16T04:16:23;11.07;;;8.40;;
9082;SDS011;4577;48.704;9.000;2023-04-16T04:18:49;10.60;;;7.63;;
9082;SDS011;4577;48.704;9.000;2023-04-16T04:21:15;11.90;;;8.50;;
9082;SDS011;4577;48.704;9.000;2023-04-16T04:23:40;11.63;;;7.50;;
9082;SDS011;4577;48.704;9.000;2023-04-16T04:26:07;9.97;;;7.40;;
9082;SDS011;4577;48.704;9.000;2023-04-16T04:28:33;9.30;;;7.00;;
9082;SDS011;4577;48.704;9.000;2023-04-16T04:30:59;9.47;;;7.07;;
9082;SDS011;4577;48.704;9.000;2023-04-16T04:33:26;9.20;;;6.50;;
9082;SDS011;4577;48.704;9.000;2023-04-16T04:35:52;7.53;;;6.40;;
9082;SDS011;4577;48.704;9.000;2023-04-16T04:38:18;9.27;;;6.57;;
9082;SDS011;4577;48.704;9.000;2023-04-16T04:40:46;8.00;;;6.70;;
9082;SDS011;4577;48.704;9.000;2023-04-16T04:43:12;12.07;;;7.60;;
9082;SDS011;4577;48.704;9.000;2023-04-16T04:45:38;9.93;;;7.30;;
9082;SDS011;4577;48.704;9.000;2023-04-16T04:48:04;9.70;;;7.30;;
9082;SDS011;4577;48.704;9.000;2023-04-16T04:50:30;8.97;;;7.37;;
9082;SDS011;4577;48.704;9.000;2023-04-16T04:52:56;14.33;;;7.70;;
9082;SDS011;4577;48.704;9.000;2023-04-16T04:55:22;11.00;;;7.10;;
9082;SDS011;4577;48.704;9.000;2023-04-16T04:57:48;11.57;;;8.17;;
9082;SDS011;4577;48.704;9.000;2023-04-16T05:00:14;11.50;;;7.57;;
9082;SDS011;4577;48.704;9.000;2023-04-16T05:02:40;11.43;;;7.20;;
9082;SDS011;4577;48.704;9.000;2023-04-16T05:05:06;12.43;;;8.57;;
9082;SDS011;4577;48.704;9.000;2023-04-16T05:07:32;12.20;;;8.53;;
9082;SDS011;4577;48.704;9.000;2023-04-16T05:09:58;14.23;;;8.73;;
9082;SDS011;4577;48.704;9.000;2023-04-16T05:12:24;12.70;;;7.83;;
9082;SDS011;4577;48.704;9.000;2023-04-16T05:14:50;11.80;;;7.87;;
9082;SDS011;4577;48.704;9.000;2023-04-16T05:17:16;20.40;;;9.50;;
9082;SDS011;4577;48.704;9.000;2023-04-16T05:19:42;17.70;;;9.63;;
9082;SDS011;4577;48.704;9.000;2023-04-16T05:22:08;16.37;;;10.57;;
9082;SDS011;4577;48.704;9.000;2023-04-16T05:24:34;14.60;;;10.00;;
9082;SDS011;4577;48.704;9.000;2023-04-16T05:27:00;18.47;;;12.23;;
9082;SDS011;4577;48.704;9.000;2023-04-16T05:29:26;23.60;;;14.70;;
9082;SDS011;4577;48.704;9.000;2023-04-16T05:31:52;28.50;;;15.47;;
9082;SDS011;4577;48.704;9.000;2023-04-16T05:34:17;29.83;;;16.33;;
9082;SDS011;4577;48.704;9.000;2023-04-16T05:36:43;25.90;;;15.40;;
9082;SDS011;4577;48.704;9.000;2023-04-16T05:39:10;36.80;;;17.67;;
9082;SDS011;4577;48.704;9.000;2023-04-16T05:41:35;22.80;;;14.73;;
9082;SDS011;4577;48.704;9.000;2023-04-16T05:44:01;24.47;;;15.27;;
9082;SDS011;4577;48.704;9.000;2023-04-16T05:46:27;25.70;;;15.10;;
9082;SDS011;4577;48.704;9.000;2023-04-16T05:48:53;29.47;;;16.37;;
9082;SDS011;4577;48.704;9.000;2023-04-16T05:51:19;34.90;;;16.33;;
9082;SDS011;4577;48.704;9.000;2023-04-16T05:53:48;25.70;;;16.20;;
9082;SDS011;4577;48.704;9.000;2023-04-16T05:56:14;28.50;;;17.33;;
9082;SDS011;4577;48.704;9.000;2023-04-16T05:58:40;31.70;;;18.33;;
9082;SDS011;4577;48.704;9.000;2023-04-16T06:03:34;30.23;;;18.20;;
9082;SDS011;4577;48.704;9.000;2023-04-16T06:06:00;30.77;;;18.20;;
9082;SDS011;4577;48.704;9.000;2023-04-16T06:08:26;31.03;;;17.60;;
9082;SDS011;4577;48.704;9.000;2023-04-16T06:10:52;54.47;;;20.53;;
9082;SDS011;4577;48.704;9.000;2023-04-16T06:13:18;38.10;;;18.97;;
9082;SDS011;4577;48.704;9.000;2023-04-16T06:15:43;34.00;;;19.17;;
9082;SDS011;4577;48.704;9.000;2023-04-16T06:18:09;34.00;;;19.57;;
9082;SDS011;4577;48.704;9.000;2023-04-16T06:20:35;34.03;;;19.40;;
9082;SDS011;4577;48.704;9.000;2023-04-16T06:23:00;36.40;;;19.83;;
9082;SDS011;4577;48.704;9.000;2023-04-16T06:25:26;33.50;;;19.67;;
9082;SDS011;4577;48.704;9.000;2023-04-16T06:27:52;34.80;;;19.50;;
9082;SDS011;4577;48.704;9.000;2023-04-16T06:30:18;34.37;;;19.23;;
9082;SDS011;4577;48.704;9.000;2023-04-16T06:32:44;30.20;;;17.93;;
9082;SDS011;4577;48.704;9.000;2023-04-16T06:35:10;34.90;;;20.80;;
9082;SDS011;4577;48.704;9.000;2023-04-16T06:37:36;36.67;;;19.90;;
9082;SDS011;4577;48.704;9.000;2023-04-16T06:40:03;35.53;;;20.90;;
9082;SDS011;4577;48.704;9.000;2023-04-16T06:42:29;37.40;;;22.40;;
9082;SDS011;4577;48.704;9.000;2023-04-16T06:44:55;38.90;;;22.30;;
9082;SDS011;4577;48.704;9.000;2023-04-16T06:47:21;40.07;;;22.17;;
9082;SDS011;4577;48.704;9.000;2023-04-16T06:49:47;40.63;;;22.60;;
9082;SDS011;4577;48.704;9.000;2023-04-16T06:52:13;36.37;;;21.37;;
9082;SDS011;4577;48.704;9.000;2023-04-16T06:54:38;39.00;;;23.00;;
9082;SDS011;4577;48.704;9.000;2023-04-16T06:57:04;39.50;;;22.43;;
9082;SDS011;4577;48.704;9.000;2023-04-16T06:59:30;39.30;;;21.30;;
9082;SDS011;4577;48.704;9.000;2023-04-16T07:01:56;40.57;;;22.60;;
9082;SDS011;4577;48.704;9.000;2023-04-16T07:04:22;42.93;;;23.37;;
9082;SDS011;4577;48.704;9.000;2023-04-16T07:06:47;43.33;;;23.27;;
9082;SDS011;4577;48.704;9.000;2023-04-16T07:09:13;43.40;;;22.07;;
9082;SDS011;4577;48.704;9.000;2023-04-16T07:11:41;40.93;;;22.60;;
9082;SDS011;4577;48.704;9.000;2023-04-16T07:14:07;38.30;;;22.70;;
9082;SDS011;4577;48.704;9.000;2023-04-16T07:16:33;36.77;;;21.60;;
9082;SDS011;4577;48.704;9.000;2023-04-16T07:19:01;35.60;;;21.30;;
9082;SDS011;4577;48.704;9.000;2023-04-16T07:21:27;38.63;;;20.97;;
9082;SDS011;4577;48.704;9.000;2023-04-16T07:23:52;35.70;;;21.07;;
9082;SDS011;4577;48.704;9.000;2023-04-16T07:26:18;36.43;;;18.90;;
9082;SDS011;4577;48.704;9.000;2023-04-16T07:28:44;32.50;;;19.83;;
9082;SDS011;4577;48.704;9.000;2023-04-16T07:31:10;30.60;;;19.20;;
9082;SDS011;4577;48.704;9.000;2023-04-16T07:33:36;35.80;;;20.37;;
9082;SDS011;4577;48.704;9.000;2023-04-16T07:36:02;31.73;;;18.73;;
9082;SDS011;4577;48.704;9.000;2023-04-16T07:38:28;33.73;;;20.00;;
9082;SDS011;4577;48.704;9.000;2023-04-16T07:40:54;37.27;;;20.00;;
9082;SDS011;4577;48.704;9.000;2023-04-16T07:43:21;33.43;;;19.30;;
9082;SDS011;4577;48.704;9.000;2023-04-16T07:45:47;33.03;;;20.20;;
9082;SDS011;4577;48.704;9.000;2023-04-16T07:48:14;31.23;;;20.13;;
9082;SDS011;4577;48.704;9.000;2023-04-16T07:50:40;34.73;;;20.93;;
9082;SDS011;4577;48.704;9.000;2023-04-16T07:53:10;32.07;;;20.23;;
9082;SDS011;4577;48.704;9.000;2023-04-16T07:55:36;31.40;;;18.57;;
9082;SDS011;4577;48.704;9.000;2023-04-16T07:58:01;31.33;;;19.20;;
9082;SDS011;4577;48.704;9.000;2023-04-16T08:00:28;31.70;;;18.43;;
9082;SDS011;4577;48.704;9.000;2023-04-16T08:02:53;31.10;;;19.00;;
9082;SDS011;4577;48.704;9.000;2023-04-16T08:05:19;28.00;;;16.80;;
9082;SDS011;4577;48.704;9.000;2023-04-16T08:07:45;32.13;;;17.67;;
9082;SDS011;4577;48.704;9.000;2023-04-16T08:10:11;32.33;;;18.07;;
9082;SDS011;4577;48.704;9.000;2023-04-16T08:12:37;32.27;;;18.37;;
9082;SDS011;4577;48.704;9.000;2023-04-16T08:15:03;32.57;;;18.90;;
9082;SDS011;4577;48.704;9.000;2023-04-16T08:17:30;32.83;;;19.00;;
9082;SDS011;4577;48.704;9.000;2023-04-16T08:19:55;30.80;;;19.00;;
9082;SDS011;4577;48.704;9.000;2023-04-16T08:22:21;28.97;;;16.83;;
9082;SDS011;4577;48.704;9.000;2023-04-16T08:24:47;31.70;;;18.10;;
9082;SDS011;4577;48.704;9.000;2023-04-16T08:27:13;29.83;;;17.00;;
9082;SDS011;4577;48.704;9.000;2023-04-16T08:29:39;30.10;;;18.63;;
9082;SDS011;4577;48.704;9.000;2023-04-16T08:32:05;29.53;;;18.50;;
9082;SDS011;4577;48.704;9.000;2023-04-16T08:34:31;32.97;;;17.73;;
9082;SDS011;4577;48.704;9.000;2023-04-16T08:36:56;26.60;;;16.57;;
9082;SDS011;4577;48.704;9.000;2023-04-16T08:39:22;31.13;;;17.90;;
9082;SDS011;4577;48.704;9.000;2023-04-16T08:41:48;26.47;;;16.70;;
9082;SDS011;4577;48.704;9.000;2023-04-16T08:44:19;26.03;;;16.70;;
9082;SDS011;4577;48.704;9.000;2023-04-16T08:46:50;27.40;;;18.00;;
9082;SDS011;4577;48.704;9.000;2023-04-16T08:49:22;29.27;;;17.63;;
9082;SDS011;4577;48.704;9.000;2023-04-16T08:51:50;27.63;;;16.87;;
9082;SDS011;4577;48.704;9.000;2023-04-16T08:54:20;24.47;;;15.70;;
9082;SDS011;4577;48.704;9.000;2023-04-16T08:56:56;25.20;;;16.33;;
9082;SDS011;4577;48.704;9.000;2023-04-16T08:59:24;27.33;;;15.53;;
9082;SDS011;4577;48.704;9.000;2023-04-16T09:01:50;26.17;;;16.30;;
9082;SDS011;4577;48.704;9.000;2023-04-16T09:04:20;23.43;;;15.17;;
9082;SDS011;4577;48.704;9.000;2023-04-16T09:06:48;28.43;;;16.87;;
9082;SDS011;4577;48.704;9.000;2023-04-16T09:09:14;24.37;;;15.80;;
9082;SDS011;4577;48.704;9.000;2023-04-16T09:11:41;27.17;;;16.53;;
9082;SDS011;4577;48.704;9.000;2023-04-16T09:14:08;26.13;;;15.90;;
9082;SDS011;4577;48.704;9.000;2023-04-16T09:16:35;29.90;;;17.50;;
9082;SDS011;4577;48.704;9.000;2023-04-16T09:19:01;24.70;;;15.40;;
9082;SDS011;4577;48.704;9.000;2023-04-16T09:21:27;27.60;;;17.00;;
9082;SDS011;4577;48.704;9.000;2023-04-16T09:23:53;24.87;;;14.97;;
9082;SDS011;4577;48.704;9.000;2023-04-16T09:26:20;24.63;;;15.90;;
9082;SDS011;4577;48.704;9.000;2023-04-16T09:28:47;23.73;;;14.60;;
9082;SDS011;4577;48.704;9.000;2023-04-16T09:31:15;26.37;;;15.27;;
9082;SDS011;4577;48.704;9.000;2023-04-16T09:33:43;34.73;;;17.00;;
9082;SDS011;4577;48.704;9.000;2023-04-16T09:36:24;27.47;;;15.67;;
9082;SDS011;4577;48.704;9.000;2023-04-16T09:38:52;24.80;;;15.50;;
9082;SDS011;4577;48.704;9.000;2023-04-16T09:41:18;28.67;;;16.30;;
9082;SDS011;4577;48.704;9.000;2023-04-16T09:46:14;26.80;;;16.33;;
9082;SDS011;4577;48.704;9.000;2023-04-16T09:48:41;24.70;;;15.60;;
9082;SDS011;4577;48.704;9.000;2023-04-16T09:51:11;30.03;;;15.83;;
9082;SDS011;4577;48.704;9.000;2023-04-16T09:53:37;33.03;;;17.10;;
9082;SDS011;4577;48.704;9.000;2023-04-16T09:56:06;37.40;;;17.17;;
9082;SDS011;4577;48.704;9.000;2023-04-16T09:58:35;31.50;;;16.67;;
9082;SDS011;4577;48.704;9.000;2023-04-16T10:01:06;28.77;;;17.53;;
9082;SDS011;4577;48.704;9.000;2023-04-16T10:03:34;28.63;;;17.80;;
9082;SDS011;4577;48.704;9.000;2023-04-16T10:08:46;27.60;;;16.23;;
9082;SDS011;4577;48.704;9.000;2023-04-16T10:11:13;25.60;;;14.33;;
9082;SDS011;4577;48.704;9.000;2023-04-16T10:13:40;29.87;;;17.27;;
9082;SDS011;4577;48.704;9.000;2023-04-16T10:16:06;32.43;;;17.10;;
9082;SDS011;4577;48.704;9.000;2023-04-16T10:18:36;28.00;;;16.77;;
9082;SDS011;4577;48.704;9.000;2023-04-16T10:21:06;32.27;;;16.30;;
9082;SDS011;4577;48.704;9.000;2023-04-16T10:23:32;29.40;;;16.90;;
9082;SDS011;4577;48.704;9.000;2023-04-16T10:26:00;30.90;;;17.50;;
9082;SDS011;4577;48.704;9.000;2023-04-16T10:28:26;26.70;;;15.60;;
9082;SDS011;4577;48.704;9.000;2023-04-16T10:30:53;29.37;;;16.30;;
9082;SDS011;4577;48.704;9.000;2023-04-16T10:33:22;31.93;;;17.53;;
9082;SDS011;4577;48.704;9.000;2023-04-16T10:35:49;30.07;;;16.33;;
9082;SDS011;4577;48.704;9.000;2023-04-16T10:41:03;31.73;;;16.50;;
9082;SDS011;4577;48.704;9.000;2023-04-16T10:43:31;25.53;;;16.10;;
9082;SDS011;4577;48.704;9.000;2023-04-16T10:48:48;27.77;;;16.40;;
9082;SDS011;4577;48.704;9.000;2023-04-16T10:51:34;29.43;;;16.67;;
9082;SDS011;4577;48.704;9.000;2023-04-16T10:54:18;26.43;;;15.17;;
9082;SDS011;4577;48.704;9.000;2023-04-16T10:56:45;29.53;;;14.10;;
9082;SDS011;4577;48.704;9.000;2023-04-16T10:59:11;28.07;;;16.20;;
9082;SDS011;4577;48.704;9.000;2023-04-16T11:01:42;25.73;;;14.77;;
9082;SDS011;4577;48.704;9.000;2023-04-16T11:12:12;21.27;;;13.60;;
9082;SDS011;4577;48.704;9.000;2023-04-16T11:14:39;24.27;;;14.53;;
9082;SDS011;4577;48.704;9.000;2023-04-16T11:17:06;22.20;;;12.10;;
9082;SDS011;4577;48.704;9.000;2023-04-16T11:19:32;18.33;;;11.50;;
9082;SDS011;4577;48.704;9.000;2023-04-16T11:22:01;24.90;;;13.47;;
9082;SDS011;4577;48.704;9.000;2023-04-16T11:24:30;19.83;;;12.87;;
9082;SDS011;4577;48.704;9.000;2023-04-16T11:26:56;17.37;;;11.07;;
9082;SDS011;4577;48.704;9.000;2023-04-16T11:29:22;21.17;;;11.60;;
9082;SDS011;4577;48.704;9.000;2023-04-16T11:31:51;20.67;;;11.93;;
9082;SDS011;4577;48.704;9.000;2023-04-16T11:34:18;20.20;;;12.03;;
9082;SDS011;4577;48.704;9.000;2023-04-16T11:36:45;16.37;;;11.20;;
9082;SDS011;4577;48.704;9.000;2023-04-16T11:39:12;17.07;;;10.30;;
9082;SDS011;4577;48.704;9.000;2023-04-16T11:44:20;18.10;;;11.00;;
9082;SDS011;4577;48.704;9.000;2023-04-16T11:46:50;18.70;;;11.60;;
9082;SDS011;4577;48.704;9.000;2023-04-16T11:49:16;18.00;;;10.93;;
9082;SDS011;4577;48.704;9.000;2023-04-16T11:51:51;17.50;;;10.80;;
9082;SDS011;4577;48.704;9.000;2023-04-16T11:54:20;19.80;;;11.17;;
9082;SDS011;4577;48.704;9.000;2023-04-16T11:56:47;16.07;;;10.50;;
9082;SDS011;4577;48.704;9.000;2023-04-16T11:59:15;12.07;;;9.37;;
9082;SDS011;4577;48.704;9.000;2023-04-16T12:01:46;15.87;;;9.93;;
9082;SDS011;4577;48.704;9.000;2023-04-16T12:04:13;13.70;;;9.37;;
9082;SDS011;4577;48.704;9.000;2023-04-16T12:06:40;11.90;;;8.57;;
9082;SDS011;4577;48.704;9.000;2023-04-16T12:09:25;12.20;;;8.37;;
9082;SDS011;4577;48.704;9.000;2023-04-16T12:11:54;12.10;;;7.97;;
9082;SDS011;4577;48.704;9.000;2023-04-16T12:14:20;11.63;;;8.50;;
9082;SDS011;4577;48.704;9.000;2023-04-16T12:16:47;13.17;;;8.27;;
9082;SDS011;4577;48.704;9.000;2023-04-16T12:19:12;13.77;;;9.30;;
9082;SDS011;4577;48.704;9.000;2023-04-16T12:21:48;10.10;;;7.50;;
9082;SDS011;4577;48.704;9.000;2023-04-16T12:24:15;10.77;;;7.37;;
9082;SDS011;4577;48.704;9.000;2023-04-16T12:26:51;9.80;;;7.10;;
9082;SDS011;4577;48.704;9.000;2023-04-16T12:29:26;7.50;;;5.13;;
9082;SDS011;4577;48.704;9.000;2023-04-16T12:31:52;10.00;;;5.10;;
9082;SDS011;4577;48.704;9.000;2023-04-16T12:34:18;6.67;;;4.77;;
9082;SDS011;4577;48.704;9.000;2023-04-16T12:36:45;6.17;;;4.50;;
9082;SDS011;4577;48.704;9.000;2023-04-16T12:39:13;4.13;;;3.73;;
9082;SDS011;4577;48.704;9.000;2023-04-16T12:41:40;4.13;;;3.73;;
9082;SDS011;4577;48.704;9.000;2023-04-16T12:44:16;6.13;;;4.10;;
9082;SDS011;4577;48.704;9.000;2023-04-16T12:46:42;4.37;;;3.70;;
9082;SDS011;4577;48.704;9.000;2023-04-16T12:49:09;4.73;;;3.90;;
9082;SDS011;4577;48.704;9.000;2023-04-16T12:51:36;10.33;;;4.27;;
9082;SDS011;4577;48.704;9.000;2023-04-16T12:54:03;5.57;;;4.07;;
9082;SDS011;4577;48.704;9.000;2023-04-16T12:56:31;5.00;;;4.20;;
9082;SDS011;4577;48.704;9.000;2023-04-16T12:58:57;5.40;;;4.53;;
9082;SDS011;4577;48.704;9.000;2023-04-16T13:01:23;7.10;;;4.40;;
9082;SDS011;4577;48.704;9.000;2023-04-16T13:03:49;5.73;;;4.10;;
9082;SDS011;4577;48.704;9.000;2023-04-16T13:06:16;5.97;;;4.30;;
9082;SDS011;4577;48.704;9.000;2023-04-16T13:08:42;5.20;;;4.20;;
9082;SDS011;4577;48.704;9.000;2023-04-16T13:11:08;6.40;;;4.50;;
9082;SDS011;4577;48.704;9.000;2023-04-16T13:13:35;6.77;;;4.47;;
9082;SDS011;4577;48.704;9.000;2023-04-16T13:16:01;10.37;;;4.63;;
9082;SDS011;4577;48.704;9.000;2023-04-16T13:18:32;4.93;;;4.43;;
9082;SDS011;4577;48.704;9.000;2023-04-16T13:20:58;5.33;;;4.80;;
9082;SDS011;4577;48.704;9.000;2023-04-16T13:23:24;6.80;;;4.77;;
9082;SDS011;4577;48.704;9.000;2023-04-16T13:25:51;7.83;;;4.33;;
9082;SDS011;4577;48.704;9.000;2023-04-16T13:28:17;6.63;;;4.87;;
9082;SDS011;4577;48.704;9.000;2023-04-16T13:30:43;5.77;;;4.30;;
9082;SDS011;4577;48.704;9.000;2023-04-16T13:33:10;8.27;;;4.50;;
9082;SDS011;4577;48.704;9.000;2023-04-16T13:35:36;6.50;;;4.47;;
9082;SDS011;4577;48.704;9.000;2023-04-16T13:38:03;4.90;;;4.33;;
9082;SDS011;4577;48.704;9.000;2023-04-16T13:40:29;5.93;;;4.87;;
9082;SDS011;4577;48.704;9.000;2023-04-16T13:42:55;6.90;;;4.80;;
9082;SDS011;4577;48.704;9.000;2023-04-16T13:45:21;5.27;;;4.57;;
9082;SDS011;4577;48.704;9.000;2023-04-16T13:47:48;6.80;;;5.00;;
9082;SDS011;4577;48.704;9.000;2023-04-16T13:50:14;5.30;;;4.70;;
9082;SDS011;4577;48.704;9.000;2023-04-16T13:52:40;5.80;;;5.07;;
9082;SDS011;4577;48.704;9.000;2023-04-16T13:55:06;7.30;;;5.47;;
9082;SDS011;4577;48.704;9.000;2023-04-16T13:57:33;6.63;;;5.27;;
9082;SDS011;4577;48.704;9.000;2023-04-16T13:59:59;7.53;;;5.13;;
9082;SDS011;4577;48.704;9.000;2023-04-16T14:02:25;7.33;;;5.63;;
9082;SDS011;4577;48.704;9.000;2023-04-16T14:04:51;7.17;;;5.73;;
9082;SDS011;4577;48.704;9.000;2023-04-16T14:07:17;9.10;;;6.37;;
9082;SDS011;4577;48.704;9.000;2023-04-16T14:09:46;7.70;;;5.87;;
9082;SDS011;4577;48.704;9.000;2023-04-16T14:12:12;7.57;;;6.30;;
9082;SDS011;4577;48.704;9.000;2023-04-16T14:14:38;7.93;;;6.50;;
9082;SDS011;4577;48.704;9.000;2023-04-16T14:17:03;8.87;;;7.23;;
9082;SDS011;4577;48.704;9.000;2023-04-16T14:19:31;10.37;;;7.23;;
9082;SDS011;4577;48.704;9.000;2023-04-16T14:21:57;10.07;;;7.47;;
9082;SDS011;4577;48.704;9.000;2023-04-16T14:24:22;11.77;;;7.90;;
9082;SDS011;4577;48.704;9.000;2023-04-16T14:26:48;11.87;;;8.33;;
9082;SDS011;4577;48.704;9.000;2023-04-16T14:29:14;11.17;;;8.80;;
9082;SDS011;4577;48.704;9.000;2023-04-16T14:31:40;14.87;;;8.57;;
9082;SDS011;4577;48.704;9.000;2023-04-16T14:34:06;15.77;;;9.47;;
9082;SDS011;4577;48.704;9.000;2023-04-16T14:36:32;16.90;;;9.27;;
9082;SDS011;4577;48.704;9.000;2023-04-16T14:38:59;15.87;;;9.67;;
9082;SDS011;4577;48.704;9.000;2023-04-16T14:41:25;14.80;;;9.03;;
9082;SDS011;4577;48.704;9.000;2023-04-16T14:43:51;13.33;;;9.57;;
9082;SDS011;4577;48.704;9.000;2023-04-16T14:46:16;13.40;;;9.50;;
9082;SDS011;4577;48.704;9.000;2023-04-16T14:48:43;15.00;;;9.40;;
9082;SDS011;4577;48.704;9.000;2023-04-16T14:51:09;14.20;;;9.30;;
9082;SDS011;4577;48.704;9.000;2023-04-16T14:53:36;11.87;;;8.40;;
9082;SDS011;4577;48.704;9.000;2023-04-16T14:56:02;14.33;;;9.57;;
9082;SDS011;4577;48.704;9.000;2023-04-16T14:58:28;15.27;;;9.73;;
9082;SDS011;4577;48.704;9.000;2023-04-16T15:00:55;12.87;;;9.57;;
9082;SDS011;4577;48.704;9.000;2023-04-16T15:03:22;13.80;;;10.30;;
9082;SDS011;4577;48.704;9.000;2023-04-16T15:05:48;14.47;;;10.30;;
9082;SDS011;4577;48.704;9.000;2023-04-16T15:08:18;17.00;;;10.57;;
9082;SDS011;4577;48.704;9.000;2023-04-16T15:10:44;16.43;;;10.93;;
9082;SDS011;4577;48.704;9.000;2023-04-16T15:13:10;16.93;;;12.03;;
9082;SDS011;4577;48.704;9.000;2023-04-16T15:15:36;18.07;;;12.50;;
9082;SDS011;4577;48.704;9.000;2023-04-16T15:18:02;20.40;;;12.77;;
9082;SDS011;4577;48.704;9.000;2023-04-16T15:20:28;18.43;;;13.10;;
9082;SDS011;4577;48.704;9.000;2023-04-16T15:22:54;19.57;;;12.97;;